sensor_id;sensor_type;location;lat;lon;timestamp;P1;durP1;ratioP1;P2;durP2;ratioP2
35576;SDS011;21680;52.400;16.920;2023-04-21T00:02:10;22.40;;;12.80;;
35576;SDS011;21680;52.400;16.920;2023-04-21T00:04:39;22.10;;;12.10;;
35576;SDS011;21680;52.400;16.920;2023-04-21T00:07:04;20.40;;;12.40;;
35576;SDS011;21680;52.400;16.920;2023-04-21T00:09:30;33.20;;;13.80;;
35576;SDS011;21680;52.400;16.920;2023-04-21T00:11:55;23.00;;;13.50;;
35576;SDS011;21680;52.400;16.920;2023-04-21T00:14:21;22.80;;;13.00;;
35576;SDS011;21680;52.400;16.920;2023-04-21T00:16:46;26.90;;;12.70;;
35576;SDS011;21680;52.400;16.920;2023-04-21T00:19:16;22.70;;;13.20;;
35576;SDS011;21680;52.400;16.920;2023-04-21T00:21:42;24.40;;;13.00;;
35576;SDS011;21680;52.400;16.920;2023-04-21T00:24:07;32.70;;;13.40;;
35576;SDS011;21680;52.400;16.920;2023-04-21T00:26:32;22.00;;;12.60;;
35576;SDS011;21680;52.400;16.920;2023-04-21T00:28:58;22.60;;;13.20;;
35576;SDS011;21680;52.400;16.920;2023-04-21T00:31:23;22.10;;;12.40;;
35576;SDS011;21680;52.400;16.920;2023-04-21T00:33:48;25.10;;;12.80;;
35576;SDS011;21680;52.400;16.920;2023-04-21T00:36:13;21.70;;;12.00;;
35576;SDS011;21680;52.400;16.920;2023-04-21T00:38:39;20.20;;;11.90;;
35576;SDS011;21680;52.400;16.920;2023-04-21T00:41:04;19.70;;;11.80;;
35576;SDS011;21680;52.400;16.920;2023-04-21T00:43:30;25.60;;;13.20;;
35576;SDS011;21680;52.400;16.920;2023-04-21T00:45:55;23.80;;;13.00;;
35576;SDS011;21680;52.400;16.920;2023-04-21T00:48:20;22.60;;;12.30;;
35576;SDS011;21680;52.400;16.920;2023-04-21T00:50:46;23.70;;;11.80;;
35576;SDS011;21680;52.400;16.920;2023-04-21T00:53:12;26.60;;;12.50;;
35576;SDS011;21680;52.400;16.920;2023-04-21T00:55:39;22.00;;;12.70;;
35576;SDS011;21680;52.400;16.920;2023-04-21T00:58:04;21.00;;;11.80;;
35576;SDS011;21680;52.400;16.920;2023-04-21T01:00:32;26.30;;;13.00;;
35576;SDS011;21680;52.400;16.920;2023-04-21T01:02:58;23.70;;;12.90;;
35576;SDS011;21680;52.400;16.920;2023-04-21T01:05:25;25.10;;;12.20;;
35576;SDS011;21680;52.400;16.920;2023-04-21T01:07:50;23.30;;;12.50;;
35576;SDS011;21680;52.400;16.920;2023-04-21T01:10:16;23.90;;;13.30;;
35576;SDS011;21680;52.400;16.920;2023-04-21T01:12:41;20.20;;;12.70;;
35576;SDS011;21680;52.400;16.920;2023-04-21T01:15:10;22.70;;;12.80;;
35576;SDS011;21680;52.400;16.920;2023-04-21T01:17:37;22.70;;;12.80;;
35576;SDS011;21680;52.400;16.920;2023-04-21T01:20:07;27.40;;;12.90;;
35576;SDS011;21680;52.400;16.920;2023-04-21T01:22:38;22.50;;;12.60;;
35576;SDS011;21680;52.400;16.920;2023-04-21T01:25:05;29.30;;;14.70;;
35576;SDS011;21680;52.400;16.920;2023-04-21T01:27:32;21.90;;;12.60;;
35576;SDS011;21680;52.400;16.920;2023-04-21T01:29:58;23.00;;;13.40;;
35576;SDS011;21680;52.400;16.920;2023-04-21T01:32:25;22.40;;;12.90;;
35576;SDS011;21680;52.400;16.920;2023-04-21T01:34:53;22.50;;;13.00;;
35576;SDS011;21680;52.400;16.920;2023-04-21T01:37:20;27.00;;;13.00;;
35576;SDS011;21680;52.400;16.920;2023-04-21T01:39:49;21.30;;;12.40;;
35576;SDS011;21680;52.400;16.920;2023-04-21T01:42:16;24.10;;;13.10;;
35576;SDS011;21680;52.400;16.920;2023-04-21T01:44:43;25.10;;;12.40;;
35576;SDS011;21680;52.400;16.920;2023-04-21T01:47:08;27.00;;;13.50;;
35576;SDS011;21680;52.400;16.920;2023-04-21T01:49:35;27.90;;;13.50;;
35576;SDS011;21680;52.400;16.920;2023-04-21T01:52:00;27.50;;;12.20;;
35576;SDS011;21680;52.400;16.920;2023-04-21T01:54:26;21.90;;;12.20;;
35576;SDS011;21680;52.400;16.920;2023-04-21T01:56:51;25.90;;;12.30;;
35576;SDS011;21680;52.400;16.920;2023-04-21T01:59:16;23.50;;;12.50;;
35576;SDS011;21680;52.400;16.920;2023-04-21T02:01:41;24.30;;;12.50;;
35576;SDS011;21680;52.400;16.920;2023-04-21T02:04:07;18.00;;;10.70;;
35576;SDS011;21680;52.400;16.920;2023-04-21T02:06:32;24.40;;;12.30;;
35576;SDS011;21680;52.400;16.920;2023-04-21T02:08:57;22.30;;;12.80;;
35576;SDS011;21680;52.400;16.920;2023-04-21T02:11:23;29.00;;;12.00;;
35576;SDS011;21680;52.400;16.920;2023-04-21T02:13:49;25.40;;;12.50;;
35576;SDS011;21680;52.400;16.920;2023-04-21T02:16:19;27.60;;;12.60;;
35576;SDS011;21680;52.400;16.920;2023-04-21T02:18:46;20.40;;;11.80;;
35576;SDS011;21680;52.400;16.920;2023-04-21T02:21:12;27.50;;;13.00;;
35576;SDS011;21680;52.400;16.920;2023-04-21T02:23:38;25.10;;;12.40;;
35576;SDS011;21680;52.400;16.920;2023-04-21T02:26:03;23.50;;;11.60;;
35576;SDS011;21680;52.400;16.920;2023-04-21T02:28:28;20.90;;;11.00;;
35576;SDS011;21680;52.400;16.920;2023-04-21T02:30:55;25.10;;;12.70;;
35576;SDS011;21680;52.400;16.920;2023-04-21T02:33:21;25.90;;;12.80;;
35576;SDS011;21680;52.400;16.920;2023-04-21T02:35:46;19.60;;;12.10;;
35576;SDS011;21680;52.400;16.920;2023-04-21T02:38:11;21.50;;;11.70;;
35576;SDS011;21680;52.400;16.920;2023-04-21T02:40:36;22.70;;;12.10;;
35576;SDS011;21680;52.400;16.920;2023-04-21T02:43:02;26.50;;;12.40;;
35576;SDS011;21680;52.400;16.920;2023-04-21T02:45:27;20.20;;;12.80;;
35576;SDS011;21680;52.400;16.920;2023-04-21T02:47:53;25.70;;;12.80;;
35576;SDS011;21680;52.400;16.920;2023-04-21T02:50:18;27.00;;;12.90;;
35576;SDS011;21680;52.400;16.920;2023-04-21T02:52:44;27.50;;;12.20;;
35576;SDS011;21680;52.400;16.920;2023-04-21T02:55:10;28.10;;;13.80;;
35576;SDS011;21680;52.400;16.920;2023-04-21T02:57:35;22.60;;;11.80;;
35576;SDS011;21680;52.400;16.920;2023-04-21T03:00:00;23.70;;;12.80;;
35576;SDS011;21680;52.400;16.920;2023-04-21T03:02:26;27.90;;;13.40;;
35576;SDS011;21680;52.400;16.920;2023-04-21T03:04:51;21.40;;;12.30;;
35576;SDS011;21680;52.400;16.920;2023-04-21T03:07:17;20.90;;;12.70;;
35576;SDS011;21680;52.400;16.920;2023-04-21T03:09:42;24.80;;;12.90;;
35576;SDS011;21680;52.400;16.920;2023-04-21T03:12:07;25.10;;;13.40;;
35576;SDS011;21680;52.400;16.920;2023-04-21T03:14:33;23.90;;;12.60;;
35576;SDS011;21680;52.400;16.920;2023-04-21T03:16:58;33.10;;;12.80;;
35576;SDS011;21680;52.400;16.920;2023-04-21T03:19:23;27.40;;;13.60;;
35576;SDS011;21680;52.400;16.920;2023-04-21T03:21:48;24.70;;;13.10;;
35576;SDS011;21680;52.400;16.920;2023-04-21T03:24:13;21.20;;;11.20;;
35576;SDS011;21680;52.400;16.920;2023-04-21T03:26:39;29.40;;;12.10;;
35576;SDS011;21680;52.400;16.920;2023-04-21T03:29:05;21.10;;;11.60;;
35576;SDS011;21680;52.400;16.920;2023-04-21T03:31:30;27.10;;;13.30;;
35576;SDS011;21680;52.400;16.920;2023-04-21T03:33:56;26.10;;;12.10;;
35576;SDS011;21680;52.400;16.920;2023-04-21T03:36:21;22.80;;;11.90;;
35576;SDS011;21680;52.400;16.920;2023-04-21T03:38:46;24.00;;;13.40;;
35576;SDS011;21680;52.400;16.920;2023-04-21T03:41:12;25.50;;;13.10;;
35576;SDS011;21680;52.400;16.920;2023-04-21T03:43:37;26.30;;;12.70;;
35576;SDS011;21680;52.400;16.920;2023-04-21T03:46:02;25.60;;;12.70;;
35576;SDS011;21680;52.400;16.920;2023-04-21T03:48:28;25.80;;;12.50;;
35576;SDS011;21680;52.400;16.920;2023-04-21T03:50:53;22.50;;;13.30;;
35576;SDS011;21680;52.400;16.920;2023-04-21T03:53:19;22.60;;;12.60;;
35576;SDS011;21680;52.400;16.920;2023-04-21T03:55:44;24.70;;;12.50;;
35576;SDS011;21680;52.400;16.920;2023-04-21T03:58:14;25.10;;;12.30;;
35576;SDS011;21680;52.400;16.920;2023-04-21T04:00:40;19.60;;;11.60;;
35576;SDS011;21680;52.400;16.920;2023-04-21T04:03:05;18.60;;;11.00;;
35576;SDS011;21680;52.400;16.920;2023-04-21T04:05:31;24.60;;;11.40;;
35576;SDS011;21680;52.400;16.920;2023-04-21T04:07:59;26.70;;;11.80;;
35576;SDS011;21680;52.400;16.920;2023-04-21T04:10:24;19.00;;;11.20;;
35576;SDS011;21680;52.400;16.920;2023-04-21T04:12:50;20.10;;;11.10;;
35576;SDS011;21680;52.400;16.920;2023-04-21T04:15:15;21.90;;;11.40;;
35576;SDS011;21680;52.400;16.920;2023-04-21T04:17:41;23.00;;;12.30;;
35576;SDS011;21680;52.400;16.920;2023-04-21T04:20:06;22.30;;;11.10;;
35576;SDS011;21680;52.400;16.920;2023-04-21T04:22:32;24.20;;;12.20;;
35576;SDS011;21680;52.400;16.920;2023-04-21T04:24:58;26.80;;;12.00;;
35576;SDS011;21680;52.400;16.920;2023-04-21T04:27:25;22.40;;;11.10;;
35576;SDS011;21680;52.400;16.920;2023-04-21T04:29:54;21.50;;;11.30;;
35576;SDS011;21680;52.400;16.920;2023-04-21T04:32:19;23.10;;;10.40;;
35576;SDS011;21680;52.400;16.920;2023-04-21T04:34:44;17.20;;;11.20;;
35576;SDS011;21680;52.400;16.920;2023-04-21T04:37:10;21.60;;;10.70;;
35576;SDS011;21680;52.400;16.920;2023-04-21T04:39:37;26.80;;;11.50;;
35576;SDS011;21680;52.400;16.920;2023-04-21T04:42:05;21.30;;;10.10;;
35576;SDS011;21680;52.400;16.920;2023-04-21T04:44:32;20.20;;;10.20;;
35576;SDS011;21680;52.400;16.920;2023-04-21T04:46:58;24.00;;;10.00;;
35576;SDS011;21680;52.400;16.920;2023-04-21T04:49:23;24.60;;;10.70;;
35576;SDS011;21680;52.400;16.920;2023-04-21T04:51:48;21.50;;;10.00;;
35576;SDS011;21680;52.400;16.920;2023-04-21T04:54:13;24.80;;;10.60;;
35576;SDS011;21680;52.400;16.920;2023-04-21T04:56:39;17.30;;;10.00;;
35576;SDS011;21680;52.400;16.920;2023-04-21T04:59:04;17.40;;;9.50;;
35576;SDS011;21680;52.400;16.920;2023-04-21T05:01:30;19.30;;;9.30;;
35576;SDS011;21680;52.400;16.920;2023-04-21T05:03:56;25.90;;;12.00;;
35576;SDS011;21680;52.400;16.920;2023-04-21T05:06:22;22.10;;;10.80;;
35576;SDS011;21680;52.400;16.920;2023-04-21T05:08:47;25.60;;;9.60;;
35576;SDS011;21680;52.400;16.920;2023-04-21T05:11:13;21.50;;;9.40;;
35576;SDS011;21680;52.400;16.920;2023-04-21T05:13:38;20.30;;;11.00;;
35576;SDS011;21680;52.400;16.920;2023-04-21T05:16:03;17.90;;;9.10;;
35576;SDS011;21680;52.400;16.920;2023-04-21T05:18:29;18.10;;;9.50;;
35576;SDS011;21680;52.400;16.920;2023-04-21T05:20:54;20.30;;;9.80;;
35576;SDS011;21680;52.400;16.920;2023-04-21T05:23:20;22.70;;;10.20;;
35576;SDS011;21680;52.400;16.920;2023-04-21T05:25:46;20.10;;;10.40;;
35576;SDS011;21680;52.400;16.920;2023-04-21T05:28:11;19.50;;;9.70;;
35576;SDS011;21680;52.400;16.920;2023-04-21T05:30:37;18.30;;;9.20;;
35576;SDS011;21680;52.400;16.920;2023-04-21T05:33:02;23.70;;;9.70;;
35576;SDS011;21680;52.400;16.920;2023-04-21T05:35:29;20.30;;;9.70;;
35576;SDS011;21680;52.400;16.920;2023-04-21T05:37:55;17.40;;;9.30;;
35576;SDS011;21680;52.400;16.920;2023-04-21T05:40:20;24.10;;;9.80;;
35576;SDS011;21680;52.400;16.920;2023-04-21T05:42:45;21.80;;;9.90;;
35576;SDS011;21680;52.400;16.920;2023-04-21T05:45:11;20.30;;;9.60;;
35576;SDS011;21680;52.400;16.920;2023-04-21T05:47:36;25.10;;;9.10;;
35576;SDS011;21680;52.400;16.920;2023-04-21T05:50:02;15.90;;;8.60;;
35576;SDS011;21680;52.400;16.920;2023-04-21T05:52:28;21.10;;;9.80;;
35576;SDS011;21680;52.400;16.920;2023-04-21T05:54:54;18.80;;;10.00;;
35576;SDS011;21680;52.400;16.920;2023-04-21T05:57:19;25.60;;;9.20;;
35576;SDS011;21680;52.400;16.920;2023-04-21T05:59:44;19.50;;;8.70;;
35576;SDS011;21680;52.400;16.920;2023-04-21T06:02:10;19.80;;;8.60;;
35576;SDS011;21680;52.400;16.920;2023-04-21T06:04:36;20.70;;;9.80;;
35576;SDS011;21680;52.400;16.920;2023-04-21T06:07:04;17.70;;;9.60;;
35576;SDS011;21680;52.400;16.920;2023-04-21T06:09:31;17.30;;;8.60;;
35576;SDS011;21680;52.400;16.920;2023-04-21T06:11:57;17.90;;;9.50;;
35576;SDS011;21680;52.400;16.920;2023-04-21T06:14:22;27.30;;;10.50;;
35576;SDS011;21680;52.400;16.920;2023-04-21T06:16:47;17.90;;;8.40;;
35576;SDS011;21680;52.400;16.920;2023-04-21T06:19:12;30.40;;;9.60;;
35576;SDS011;21680;52.400;16.920;2023-04-21T06:21:38;22.50;;;9.10;;
35576;SDS011;21680;52.400;16.920;2023-04-21T06:24:03;20.20;;;9.40;;
35576;SDS011;21680;52.400;16.920;2023-04-21T06:26:29;19.30;;;8.50;;
35576;SDS011;21680;52.400;16.920;2023-04-21T06:28:54;19.60;;;9.00;;
35576;SDS011;21680;52.400;16.920;2023-04-21T06:31:20;18.30;;;8.00;;
35576;SDS011;21680;52.400;16.920;2023-04-21T06:33:45;14.70;;;8.10;;
35576;SDS011;21680;52.400;16.920;2023-04-21T06:36:11;14.20;;;8.40;;
35576;SDS011;21680;52.400;16.920;2023-04-21T06:38:37;17.00;;;8.20;;
35576;SDS011;21680;52.400;16.920;2023-04-21T06:41:04;19.20;;;8.50;;
35576;SDS011;21680;52.400;16.920;2023-04-21T06:43:30;17.80;;;8.80;;
35576;SDS011;21680;52.400;16.920;2023-04-21T06:45:55;15.50;;;8.20;;
35576;SDS011;21680;52.400;16.920;2023-04-21T06:48:20;18.70;;;9.50;;
35576;SDS011;21680;52.400;16.920;2023-04-21T06:50:46;21.50;;;8.20;;
35576;SDS011;21680;52.400;16.920;2023-04-21T06:53:11;15.10;;;8.30;;
35576;SDS011;21680;52.400;16.920;2023-04-21T06:55:37;17.80;;;8.80;;
35576;SDS011;21680;52.400;16.920;2023-04-21T06:58:02;15.20;;;8.20;;
35576;SDS011;21680;52.400;16.920;2023-04-21T07:00:27;13.30;;;8.00;;
35576;SDS011;21680;52.400;16.920;2023-04-21T07:02:53;15.10;;;8.00;;
35576;SDS011;21680;52.400;16.920;2023-04-21T07:05:18;16.80;;;7.60;;
35576;SDS011;21680;52.400;16.920;2023-04-21T07:07:43;17.90;;;8.40;;
35576;SDS011;21680;52.400;16.920;2023-04-21T07:10:09;17.10;;;7.40;;
35576;SDS011;21680;52.400;16.920;2023-04-21T07:12:34;14.50;;;7.90;;
35576;SDS011;21680;52.400;16.920;2023-04-21T07:15:00;19.60;;;8.20;;
35576;SDS011;21680;52.400;16.920;2023-04-21T07:17:25;16.30;;;8.10;;
35576;SDS011;21680;52.400;16.920;2023-04-21T07:19:50;20.40;;;8.40;;
35576;SDS011;21680;52.400;16.920;2023-04-21T07:22:16;20.00;;;8.50;;
35576;SDS011;21680;52.400;16.920;2023-04-21T07:24:41;17.50;;;8.20;;
35576;SDS011;21680;52.400;16.920;2023-04-21T07:27:06;19.20;;;8.90;;
35576;SDS011;21680;52.400;16.920;2023-04-21T07:29:31;16.60;;;8.60;;
35576;SDS011;21680;52.400;16.920;2023-04-21T07:31:57;14.30;;;7.30;;
35576;SDS011;21680;52.400;16.920;2023-04-21T07:34:22;18.50;;;7.90;;
35576;SDS011;21680;52.400;16.920;2023-04-21T07:36:50;15.80;;;7.20;;
35576;SDS011;21680;52.400;16.920;2023-04-21T07:39:16;12.90;;;7.60;;
35576;SDS011;21680;52.400;16.920;2023-04-21T07:41:42;16.90;;;7.80;;
35576;SDS011;21680;52.400;16.920;2023-04-21T07:44:07;14.00;;;8.30;;
35576;SDS011;21680;52.400;16.920;2023-04-21T07:46:33;23.40;;;8.10;;
35576;SDS011;21680;52.400;16.920;2023-04-21T07:48:58;16.60;;;7.90;;
35576;SDS011;21680;52.400;16.920;2023-04-21T07:51:24;14.50;;;8.80;;
35576;SDS011;21680;52.400;16.920;2023-04-21T07:53:51;15.00;;;7.30;;
35576;SDS011;21680;52.400;16.920;2023-04-21T07:56:17;17.70;;;8.00;;
35576;SDS011;21680;52.400;16.920;2023-04-21T07:58:42;15.70;;;7.60;;
35576;SDS011;21680;52.400;16.920;2023-04-21T08:01:07;14.60;;;7.50;;
35576;SDS011;21680;52.400;16.920;2023-04-21T08:03:33;19.60;;;7.80;;
35576;SDS011;21680;52.400;16.920;2023-04-21T08:05:58;13.10;;;7.70;;
35576;SDS011;21680;52.400;16.920;2023-04-21T08:08:23;16.50;;;6.70;;
35576;SDS011;21680;52.400;16.920;2023-04-21T08:10:48;12.90;;;6.40;;
35576;SDS011;21680;52.400;16.920;2023-04-21T08:13:14;15.70;;;7.20;;
35576;SDS011;21680;52.400;16.920;2023-04-21T08:15:39;12.90;;;7.20;;
35576;SDS011;21680;52.400;16.920;2023-04-21T08:18:06;13.50;;;7.10;;
35576;SDS011;21680;52.400;16.920;2023-04-21T08:20:32;13.80;;;6.80;;
35576;SDS011;21680;52.400;16.920;2023-04-21T08:22:57;12.70;;;6.90;;
35576;SDS011;21680;52.400;16.920;2023-04-21T08:25:23;15.90;;;6.90;;
35576;SDS011;21680;52.400;16.920;2023-04-21T08:27:48;14.90;;;6.60;;
35576;SDS011;21680;52.400;16.920;2023-04-21T08:30:13;15.10;;;6.30;;
35576;SDS011;21680;52.400;16.920;2023-04-21T08:32:40;15.90;;;7.10;;
35576;SDS011;21680;52.400;16.920;2023-04-21T08:35:06;12.20;;;6.30;;
35576;SDS011;21680;52.400;16.920;2023-04-21T08:37:35;16.60;;;7.40;;
35576;SDS011;21680;52.400;16.920;2023-04-21T08:40:02;17.40;;;6.70;;
35576;SDS011;21680;52.400;16.920;2023-04-21T08:42:29;9.90;;;5.70;;
35576;SDS011;21680;52.400;16.920;2023-04-21T08:44:54;12.60;;;6.20;;
35576;SDS011;21680;52.400;16.920;2023-04-21T08:47:19;19.30;;;5.80;;
35576;SDS011;21680;52.400;16.920;2023-04-21T08:49:47;14.40;;;5.80;;
35576;SDS011;21680;52.400;16.920;2023-04-21T08:52:15;14.20;;;5.10;;
35576;SDS011;21680;52.400;16.920;2023-04-21T08:54:40;10.90;;;5.30;;
35576;SDS011;21680;52.400;16.920;2023-04-21T08:57:06;13.60;;;5.50;;
35576;SDS011;21680;52.400;16.920;2023-04-21T08:59:32;12.20;;;4.90;;
35576;SDS011;21680;52.400;16.920;2023-04-21T09:02:10;13.50;;;5.00;;
35576;SDS011;21680;52.400;16.920;2023-04-21T09:04:42;8.60;;;4.80;;
35576;SDS011;21680;52.400;16.920;2023-04-21T09:07:09;7.90;;;4.10;;
35576;SDS011;21680;52.400;16.920;2023-04-21T09:09:51;12.90;;;4.80;;
35576;SDS011;21680;52.400;16.920;2023-04-21T09:12:19;11.10;;;4.90;;
35576;SDS011;21680;52.400;16.920;2023-04-21T09:14:46;12.20;;;4.30;;
35576;SDS011;21680;52.400;16.920;2023-04-21T09:17:11;7.40;;;4.50;;
35576;SDS011;21680;52.400;16.920;2023-04-21T09:19:36;7.10;;;4.30;;
35576;SDS011;21680;52.400;16.920;2023-04-21T09:22:02;14.10;;;5.20;;
35576;SDS011;21680;52.400;16.920;2023-04-21T09:24:28;9.80;;;4.60;;
35576;SDS011;21680;52.400;16.920;2023-04-21T09:26:54;9.80;;;4.50;;
35576;SDS011;21680;52.400;16.920;2023-04-21T09:29:23;8.50;;;4.50;;
35576;SDS011;21680;52.400;16.920;2023-04-21T09:31:50;9.60;;;4.90;;
35576;SDS011;21680;52.400;16.920;2023-04-21T09:34:20;14.50;;;4.40;;
35576;SDS011;21680;52.400;16.920;2023-04-21T09:37:07;12.40;;;6.10;;
35576;SDS011;21680;52.400;16.920;2023-04-21T09:39:35;7.60;;;4.70;;
35576;SDS011;21680;52.400;16.920;2023-04-21T09:42:01;10.20;;;4.70;;
35576;SDS011;21680;52.400;16.920;2023-04-21T09:44:26;8.60;;;4.00;;
35576;SDS011;21680;52.400;16.920;2023-04-21T09:47:00;6.40;;;4.00;;
35576;SDS011;21680;52.400;16.920;2023-04-21T09:49:28;6.30;;;4.00;;
35576;SDS011;21680;52.400;16.920;2023-04-21T09:51:59;8.60;;;4.30;;
35576;SDS011;21680;52.400;16.920;2023-04-21T09:54:29;8.80;;;4.00;;
35576;SDS011;21680;52.400;16.920;2023-04-21T09:57:00;10.80;;;3.40;;
35576;SDS011;21680;52.400;16.920;2023-04-21T09:59:36;6.90;;;4.00;;
35576;SDS011;21680;52.400;16.920;2023-04-21T10:02:05;7.80;;;4.10;;
35576;SDS011;21680;52.400;16.920;2023-04-21T10:04:31;11.60;;;4.60;;
35576;SDS011;21680;52.400;16.920;2023-04-21T10:06:58;8.00;;;4.50;;
35576;SDS011;21680;52.400;16.920;2023-04-21T10:09:25;9.70;;;4.60;;
35576;SDS011;21680;52.400;16.920;2023-04-21T10:11:55;10.90;;;4.90;;
35576;SDS011;21680;52.400;16.920;2023-04-21T10:14:21;13.10;;;5.30;;
35576;SDS011;21680;52.400;16.920;2023-04-21T10:17:05;5.80;;;4.10;;
35576;SDS011;21680;52.400;16.920;2023-04-21T10:19:32;9.60;;;4.80;;
35576;SDS011;21680;52.400;16.920;2023-04-21T10:22:04;8.60;;;4.80;;
35576;SDS011;21680;52.400;16.920;2023-04-21T10:24:31;11.00;;;5.40;;
35576;SDS011;21680;52.400;16.920;2023-04-21T10:27:08;7.90;;;4.40;;
35576;SDS011;21680;52.400;16.920;2023-04-21T10:29:35;10.50;;;5.00;;
35576;SDS011;21680;52.400;16.920;2023-04-21T10:32:00;11.10;;;5.10;;
35576;SDS011;21680;52.400;16.920;2023-04-21T10:34:28;7.50;;;5.20;;
35576;SDS011;21680;52.400;16.920;2023-04-21T10:44:42;9.30;;;4.50;;
35576;SDS011;21680;52.400;16.920;2023-04-21T10:47:08;8.40;;;4.50;;
35576;SDS011;21680;52.400;16.920;2023-04-21T10:49:38;7.80;;;5.10;;
35576;SDS011;21680;52.400;16.920;2023-04-21T10:54:41;9.20;;;5.10;;
35576;SDS011;21680;52.400;16.920;2023-04-21T10:57:10;6.80;;;4.50;;
35576;SDS011;21680;52.400;16.920;2023-04-21T10:59:37;9.20;;;5.00;;
35576;SDS011;21680;52.400;16.920;2023-04-21T11:02:06;11.20;;;4.70;;
35576;SDS011;21680;52.400;16.920;2023-04-21T11:04:32;9.60;;;5.00;;
35576;SDS011;21680;52.400;16.920;2023-04-21T11:07:08;9.90;;;4.80;;
35576;SDS011;21680;52.400;16.920;2023-04-21T11:09:36;6.10;;;4.30;;
35576;SDS011;21680;52.400;16.920;2023-04-21T11:12:04;13.30;;;5.30;;
35576;SDS011;21680;52.400;16.920;2023-04-21T11:14:35;9.30;;;4.40;;
35576;SDS011;21680;52.400;16.920;2023-04-21T11:17:07;11.60;;;4.80;;
35576;SDS011;21680;52.400;16.920;2023-04-21T11:19:36;7.60;;;4.60;;
35576;SDS011;21680;52.400;16.920;2023-04-21T11:22:02;7.00;;;4.70;;
35576;SDS011;21680;52.400;16.920;2023-04-21T11:24:28;9.90;;;5.00;;
35576;SDS011;21680;52.400;16.920;2023-04-21T11:26:53;9.00;;;5.20;;
35576;SDS011;21680;52.400;16.920;2023-04-21T11:29:18;15.80;;;4.90;;
35576;SDS011;21680;52.400;16.920;2023-04-21T11:31:44;6.80;;;4.10;;
35576;SDS011;21680;52.400;16.920;2023-04-21T11:34:13;8.90;;;4.60;;
35576;SDS011;21680;52.400;16.920;2023-04-21T11:36:41;8.70;;;4.50;;
35576;SDS011;21680;52.400;16.920;2023-04-21T11:39:12;7.80;;;3.90;;
35576;SDS011;21680;52.400;16.920;2023-04-21T11:41:42;7.10;;;4.10;;
35576;SDS011;21680;52.400;16.920;2023-04-21T11:44:09;9.00;;;4.20;;
35576;SDS011;21680;52.400;16.920;2023-04-21T11:46:43;8.40;;;4.80;;
35576;SDS011;21680;52.400;16.920;2023-04-21T11:49:10;7.40;;;4.40;;
35576;SDS011;21680;52.400;16.920;2023-04-21T11:51:38;6.10;;;4.20;;
35576;SDS011;21680;52.400;16.920;2023-04-21T11:54:05;9.40;;;4.40;;
35576;SDS011;21680;52.400;16.920;2023-04-21T11:56:35;5.80;;;3.80;;
35576;SDS011;21680;52.400;16.920;2023-04-21T11:59:05;8.30;;;4.60;;
35576;SDS011;21680;52.400;16.920;2023-04-21T12:01:32;6.80;;;4.20;;
35576;SDS011;21680;52.400;16.920;2023-04-21T12:03:57;8.50;;;4.10;;
35576;SDS011;21680;52.400;16.920;2023-04-21T12:06:23;10.20;;;4.40;;
35576;SDS011;21680;52.400;16.920;2023-04-21T12:08:57;7.70;;;3.80;;
35576;SDS011;21680;52.400;16.920;2023-04-21T12:11:26;9.80;;;4.60;;
35576;SDS011;21680;52.400;16.920;2023-04-21T12:13:52;6.70;;;4.20;;
35576;SDS011;21680;52.400;16.920;2023-04-21T12:16:20;9.60;;;3.90;;
35576;SDS011;21680;52.400;16.920;2023-04-21T12:18:46;8.40;;;4.10;;
35576;SDS011;21680;52.400;16.920;2023-04-21T12:21:13;5.80;;;4.00;;
35576;SDS011;21680;52.400;16.920;2023-04-21T12:23:40;4.50;;;3.60;;
35576;SDS011;21680;52.400;16.920;2023-04-21T12:26:05;8.80;;;3.40;;
35576;SDS011;21680;52.400;16.920;2023-04-21T12:28:32;7.40;;;4.00;;
35576;SDS011;21680;52.400;16.920;2023-04-21T12:30:57;8.80;;;3.50;;
35576;SDS011;21680;52.400;16.920;2023-04-21T12:33:22;8.20;;;4.30;;
35576;SDS011;21680;52.400;16.920;2023-04-21T12:35:48;9.60;;;3.70;;
35576;SDS011;21680;52.400;16.920;2023-04-21T12:38:13;8.60;;;4.90;;
35576;SDS011;21680;52.400;16.920;2023-04-21T12:40:38;8.10;;;4.20;;
35576;SDS011;21680;52.400;16.920;2023-04-21T12:43:04;8.70;;;3.80;;
35576;SDS011;21680;52.400;16.920;2023-04-21T12:45:29;10.20;;;3.80;;
35576;SDS011;21680;52.400;16.920;2023-04-21T12:47:56;3.90;;;3.40;;
35576;SDS011;21680;52.400;16.920;2023-04-21T12:50:22;5.40;;;3.80;;
35576;SDS011;21680;52.400;16.920;2023-04-21T12:52:47;8.60;;;4.50;;
35576;SDS011;21680;52.400;16.920;2023-04-21T12:55:15;9.90;;;4.60;;
35576;SDS011;21680;52.400;16.920;2023-04-21T12:57:41;7.40;;;4.60;;
35576;SDS011;21680;52.400;16.920;2023-04-21T13:00:06;7.50;;;4.50;;
35576;SDS011;21680;52.400;16.920;2023-04-21T13:02:36;8.30;;;4.20;;
35576;SDS011;21680;52.400;16.920;2023-04-21T13:05:02;8.00;;;4.30;;
35576;SDS011;21680;52.400;16.920;2023-04-21T13:07:29;4.70;;;4.20;;
35576;SDS011;21680;52.400;16.920;2023-04-21T13:09:55;6.90;;;4.40;;
35576;SDS011;21680;52.400;16.920;2023-04-21T13:12:21;6.00;;;3.80;;
35576;SDS011;21680;52.400;16.920;2023-04-21T13:14:47;6.80;;;3.70;;
35576;SDS011;21680;52.400;16.920;2023-04-21T13:17:13;5.60;;;3.50;;
35576;SDS011;21680;52.400;16.920;2023-04-21T13:19:39;8.00;;;4.00;;
35576;SDS011;21680;52.400;16.920;2023-04-21T13:22:05;5.70;;;3.90;;
35576;SDS011;21680;52.400;16.920;2023-04-21T13:24:30;5.90;;;4.50;;
35576;SDS011;21680;52.400;16.920;2023-04-21T13:26:56;5.90;;;3.60;;
35576;SDS011;21680;52.400;16.920;2023-04-21T13:29:21;7.00;;;3.80;;
35576;SDS011;21680;52.400;16.920;2023-04-21T13:31:46;6.00;;;3.70;;
35576;SDS011;21680;52.400;16.920;2023-04-21T13:34:12;8.10;;;3.80;;
35576;SDS011;21680;52.400;16.920;2023-04-21T13:36:37;7.70;;;4.30;;
35576;SDS011;21680;52.400;16.920;2023-04-21T13:39:03;9.80;;;3.50;;
35576;SDS011;21680;52.400;16.920;2023-04-21T13:41:29;6.50;;;3.60;;
35576;SDS011;21680;52.400;16.920;2023-04-21T13:43:55;9.20;;;4.20;;
35576;SDS011;21680;52.400;16.920;2023-04-21T13:46:20;4.90;;;3.40;;
35576;SDS011;21680;52.400;16.920;2023-04-21T13:48:46;6.20;;;3.90;;
35576;SDS011;21680;52.400;16.920;2023-04-21T13:51:12;8.50;;;4.20;;
35576;SDS011;21680;52.400;16.920;2023-04-21T13:53:37;7.70;;;3.20;;
35576;SDS011;21680;52.400;16.920;2023-04-21T13:56:02;9.60;;;3.80;;
35576;SDS011;21680;52.400;16.920;2023-04-21T13:58:28;8.40;;;4.00;;
35576;SDS011;21680;52.400;16.920;2023-04-21T14:00:55;9.10;;;4.00;;
35576;SDS011;21680;52.400;16.920;2023-04-21T14:03:20;7.00;;;3.40;;
35576;SDS011;21680;52.400;16.920;2023-04-21T14:05:46;4.90;;;3.90;;
35576;SDS011;21680;52.400;16.920;2023-04-21T14:08:11;5.70;;;3.70;;
35576;SDS011;21680;52.400;16.920;2023-04-21T14:10:36;4.80;;;3.40;;
35576;SDS011;21680;52.400;16.920;2023-04-21T14:13:02;5.40;;;3.50;;
35576;SDS011;21680;52.400;16.920;2023-04-21T14:15:28;9.50;;;3.50;;
35576;SDS011;21680;52.400;16.920;2023-04-21T14:17:54;5.60;;;3.70;;
35576;SDS011;21680;52.400;16.920;2023-04-21T14:20:20;4.20;;;3.30;;
35576;SDS011;21680;52.400;16.920;2023-04-21T14:22:46;5.20;;;3.30;;
35576;SDS011;21680;52.400;16.920;2023-04-21T14:25:11;4.30;;;3.10;;
35576;SDS011;21680;52.400;16.920;2023-04-21T14:27:38;7.70;;;3.90;;